Time;durP1;ratioP1;P1;durP2;ratioP2;P2;SDS_P1;SDS_P2;PMS_P1;PMS_P2;Temp;Humidity;BMP_temperature;BMP_pressure;BME280_temperature;BME280_humidity;BME280_pressure;Samples;Min_cycle;Max_cycle;Signal;HPM_P1;HPM_P2
2024/03/15 00:02:04;;;;;;;5.50;4.82;;;;;;;;;;5044686;28;20385;-84
2024/03/15 00:04:30;;;;;;;5.20;4.80;;;;;;;;;;5052779;28;20392;-84
2024/03/15 00:06:56;;;;;;;5.07;4.57;;;;;;;;;;5052581;28;20381;-84
2024/03/15 00:09:22;;;;;;;4.90;4.50;;;;;;;;;;5052618;28;20385;-83
2024/03/15 00:11:48;;;;;;;5.55;4.50;;;;;;;;;;5049507;28;20402;-83
2024/03/15 00:14:14;;;;;;;8.13;4.60;;;;;;;;;;5053046;28;20389;-83
2024/03/15 00:16:40;;;;;;;5.07;4.68;;;;;;;;;;5052872;28;20809;-86
2024/03/15 00:19:06;;;;;;;6.05;4.15;;;;;;;;;;5053010;28;20451;-83
2024/03/15 00:21:32;;;;;;;5.43;4.90;;;;;;;;;;5055646;28;20391;-83
2024/03/15 00:24:00;;;;;;;5.18;4.68;;;;;;;;;;5052784;28;20389;-84
2024/03/15 00:26:26;;;;;;;5.22;4.80;;;;;;;;;;5052028;28;20443;-84
2024/03/15 00:28:52;;;;;;;7.07;4.47;;;;;;;;;;5052238;28;20381;-83
2024/03/15 00:31:17;;;;;;;5.25;4.78;;;;;;;;;;5051777;28;20402;-84
2024/03/15 00:33:43;;;;;;;4.93;4.43;;;;;;;;;;5050035;28;20392;-84
2024/03/15 00:36:09;;;;;;;4.63;4.23;;;;;;;;;;5051832;28;20419;-84
2024/03/15 00:38:36;;;;;;;4.80;3.97;;;;;;;;;;5051934;28;20381;-84
2024/03/15 00:41:02;;;;;;;5.05;4.65;;;;;;;;;;5051784;28;20454;-84
2024/03/15 00:43:28;;;;;;;4.53;4.13;;;;;;;;;;5051784;28;20386;-84
2024/03/15 00:45:56;;;;;;;4.10;3.80;;;;;;;;;;5051633;28;20381;-84
2024/03/15 00:48:22;;;;;;;4.78;3.78;;;;;;;;;;5052350;28;20847;-84
2024/03/15 00:50:49;;;;;;;4.00;3.60;;;;;;;;;;5051964;28;20458;-84
2024/03/15 00:53:15;;;;;;;4.50;3.22;;;;;;;;;;5052497;28;20388;-82
2024/03/15 00:55:41;;;;;;;4.57;3.20;;;;;;;;;;5052014;28;20374;-84
2024/03/15 00:58:07;;;;;;;3.33;3.03;;;;;;;;;;5051936;28;20870;-83
2024/03/15 01:00:33;;;;;;;3.35;3.05;;;;;;;;;;5052072;28;20871;-84
2024/03/15 01:02:59;;;;;;;3.30;3.00;;;;;;;;;;5052058;28;20377;-84
2024/03/15 01:05:25;;;;;;;3.65;3.28;;;;;;;;;;5051955;28;20392;-84
2024/03/15 01:07:51;;;;;;;3.38;3.10;;;;;;;;;;5051668;28;20859;-85
2024/03/15 01:10:17;;;;;;;3.60;3.30;;;;;;;;;;5051699;28;20383;-84
2024/03/15 01:12:43;;;;;;;3.33;3.10;;;;;;;;;;5051541;28;20401;-84
2024/03/15 01:15:09;;;;;;;3.60;3.30;;;;;;;;;;5051515;28;20878;-85
2024/03/15 01:17:36;;;;;;;3.88;3.50;;;;;;;;;;5051920;28;20377;-84
2024/03/15 01:20:05;;;;;;;3.58;3.28;;;;;;;;;;5050115;28;20432;-83
2024/03/15 01:22:32;;;;;;;3.85;3.50;;;;;;;;;;5051427;28;20389;-85
2024/03/15 01:24:58;;;;;;;3.72;3.35;;;;;;;;;;5051636;28;20909;-83
2024/03/15 01:27:24;;;;;;;4.03;3.50;;;;;;;;;;5037403;28;20486;-84
2024/03/15 01:29:50;;;;;;;3.45;3.15;;;;;;;;;;5052001;28;20384;-84
2024/03/15 01:32:16;;;;;;;3.38;3.10;;;;;;;;;;5051888;28;20970;-84
2024/03/15 01:34:42;;;;;;;4.38;3.50;;;;;;;;;;5051691;28;20836;-84
2024/03/15 01:37:08;;;;;;;3.30;3.00;;;;;;;;;;5051301;28;20384;-84
2024/03/15 01:39:34;;;;;;;3.30;3.00;;;;;;;;;;5051348;28;20405;-83
2024/03/15 01:42:00;;;;;;;3.80;3.40;;;;;;;;;;5051378;28;20462;-85
2024/03/15 01:44:27;;;;;;;3.55;3.25;;;;;;;;;;5051202;28;20871;-84
2024/03/15 01:46:53;;;;;;;4.60;3.45;;;;;;;;;;5051341;28;20373;-84
2024/03/15 01:49:20;;;;;;;3.58;3.28;;;;;;;;;;5051424;28;20709;-84
2024/03/15 01:51:46;;;;;;;3.40;3.10;;;;;;;;;;5051293;28;20416;-85
2024/03/15 01:54:12;;;;;;;3.53;3.22;;;;;;;;;;5050400;28;20382;-84
2024/03/15 01:56:38;;;;;;;3.30;2.97;;;;;;;;;;5052701;28;20369;-84
2024/03/15 01:59:04;;;;;;;3.05;2.85;;;;;;;;;;5054613;28;20381;-83
2024/03/15 02:01:30;;;;;;;3.67;3.13;;;;;;;;;;5054819;28;20427;-84
2024/03/15 02:03:56;;;;;;;3.85;3.38;;;;;;;;;;5055450;28;20847;-84
2024/03/15 02:06:22;;;;;;;2.80;2.60;;;;;;;;;;5057989;28;20378;-85
2024/03/15 02:08:49;;;;;;;3.30;3.03;;;;;;;;;;5051152;28;20389;-83
2024/03/15 02:11:15;;;;;;;4.05;3.13;;;;;;;;;;5057830;28;20412;-83
2024/03/15 02:13:41;;;;;;;3.88;3.35;;;;;;;;;;5053049;28;20380;-84
2024/03/15 02:16:07;;;;;;;3.73;2.87;;;;;;;;;;5048889;28;20382;-83
2024/03/15 02:18:35;;;;;;;3.95;3.55;;;;;;;;;;5057747;28;20435;-83
2024/03/15 02:21:01;;;;;;;3.70;3.33;;;;;;;;;;5057573;28;20405;-83
2024/03/15 02:23:27;;;;;;;4.00;3.60;;;;;;;;;;5057562;28;20384;-83
2024/03/15 02:25:53;;;;;;;3.45;3.15;;;;;;;;;;5057593;28;20727;-83
2024/03/15 02:28:22;;;;;;;3.70;3.40;;;;;;;;;;5057742;28;20385;-83
2024/03/15 02:30:48;;;;;;;3.88;3.50;;;;;;;;;;5057765;28;20374;-83
2024/03/15 02:33:15;;;;;;;3.70;3.40;;;;;;;;;;5057248;28;20869;-83
2024/03/15 02:35:41;;;;;;;3.97;3.67;;;;;;;;;;5057362;28;20413;-83
2024/03/15 02:38:07;;;;;;;5.70;3.38;;;;;;;;;;5057313;28;20448;-83
2024/03/15 02:40:33;;;;;;;3.80;3.25;;;;;;;;;;5057265;28;20381;-82
2024/03/15 02:42:59;;;;;;;4.50;3.75;;;;;;;;;;5056925;28;20409;-83
2024/03/15 02:45:26;;;;;;;3.70;3.40;;;;;;;;;;5057795;28;20736;-83
2024/03/15 02:47:52;;;;;;;3.63;3.40;;;;;;;;;;5057275;28;20432;-83
2024/03/15 02:50:20;;;;;;;4.57;3.50;;;;;;;;;;5056157;28;20405;-83
2024/03/15 02:52:47;;;;;;;3.70;3.30;;;;;;;;;;5056683;28;20405;-83
2024/03/15 02:55:14;;;;;;;3.70;3.40;;;;;;;;;;5057072;28;20366;-82
2024/03/15 02:57:40;;;;;;;4.03;3.58;;;;;;;;;;5057421;28;20703;-83
2024/03/15 03:00:09;;;;;;;4.30;4.00;;;;;;;;;;5056668;28;20386;-83
2024/03/15 03:02:35;;;;;;;4.40;4.00;;;;;;;;;;5056877;28;20434;-83
2024/03/15 03:05:01;;;;;;;3.83;3.53;;;;;;;;;;5056519;28;20472;-83
2024/03/15 03:07:27;;;;;;;4.45;4.03;;;;;;;;;;5055347;28;20944;-83
2024/03/15 03:09:54;;;;;;;4.32;4.03;;;;;;;;;;5056842;28;20392;-83
2024/03/15 03:12:20;;;;;;;4.43;4.07;;;;;;;;;;5055908;28;20413;-82
2024/03/15 03:14:46;;;;;;;4.28;3.75;;;;;;;;;;5056805;28;20778;-83
2024/03/15 03:17:13;;;;;;;4.25;3.88;;;;;;;;;;5054884;28;20382;-83
2024/03/15 03:19:39;;;;;;;5.25;4.35;;;;;;;;;;5056071;28;20405;-83
2024/03/15 03:22:06;;;;;;;4.70;4.30;;;;;;;;;;5056062;28;20405;-83
2024/03/15 03:24:31;;;;;;;5.13;4.63;;;;;;;;;;5056658;28;20878;-82
2024/03/15 03:26:57;;;;;;;5.97;4.63;;;;;;;;;;5056871;28;20389;-82
2024/03/15 03:29:23;;;;;;;4.90;4.50;;;;;;;;;;5056018;28;20459;-83
2024/03/15 03:31:49;;;;;;;5.00;4.53;;;;;;;;;;5055831;28;20410;-82
2024/03/15 03:34:15;;;;;;;4.67;4.33;;;;;;;;;;5055080;28;20381;-83
2024/03/15 03:36:42;;;;;;;4.60;4.28;;;;;;;;;;5056355;28;20380;-85
2024/03/15 03:39:10;;;;;;;4.68;4.38;;;;;;;;;;5055706;28;20382;-82
2024/03/15 03:41:36;;;;;;;4.60;4.20;;;;;;;;;;5056191;28;20739;-83
2024/03/15 03:44:03;;;;;;;5.13;4.72;;;;;;;;;;5056387;28;20401;-83
2024/03/15 03:46:29;;;;;;;5.43;4.73;;;;;;;;;;5055694;28;20389;-83
2024/03/15 03:48:55;;;;;;;4.80;4.40;;;;;;;;;;5055533;28;20389;-83
2024/03/15 03:51:21;;;;;;;5.50;4.82;;;;;;;;;;5056097;28;20409;-83
2024/03/15 03:53:48;;;;;;;5.03;4.53;;;;;;;;;;5056500;28;20377;-84
2024/03/15 03:56:15;;;;;;;6.03;5.45;;;;;;;;;;5055868;28;20397;-83
2024/03/15 03:58:41;;;;;;;4.87;4.47;;;;;;;;;;5053004;28;20382;-83
2024/03/15 04:01:07;;;;;;;5.05;4.65;;;;;;;;;;5055508;28;20389;-83
2024/03/15 04:03:33;;;;;;;4.93;4.53;;;;;;;;;;5047560;28;20378;-83
2024/03/15 04:06:00;;;;;;;5.50;5.00;;;;;;;;;;5044903;28;20387;-83
2024/03/15 04:08:26;;;;;;;5.10;4.63;;;;;;;;;;5053786;28;20448;-82
2024/03/15 04:10:52;;;;;;;5.40;4.55;;;;;;;;;;5055740;28;20389;-83
2024/03/15 04:13:19;;;;;;;5.00;4.60;;;;;;;;;;5056277;28;20381;-83
2024/03/15 04:15:46;;;;;;;4.70;4.30;;;;;;;;;;5055778;28;20378;-85
2024/03/15 04:18:13;;;;;;;5.07;4.10;;;;;;;;;;5054990;28;20385;-83
2024/03/15 04:20:39;;;;;;;4.68;4.20;;;;;;;;;;5054400;28;20384;-85
2024/03/15 04:23:06;;;;;;;4.72;4.22;;;;;;;;;;5055515;28;20531;-85
2024/03/15 04:25:32;;;;;;;4.43;4.03;;;;;;;;;;5055563;28;20483;-82
2024/03/15 04:27:58;;;;;;;4.85;4.28;;;;;;;;;;5055112;28;20396;-85
2024/03/15 04:30:24;;;;;;;5.15;4.63;;;;;;;;;;5055902;28;20604;-85
2024/03/15 04:32:50;;;;;;;5.35;4.53;;;;;;;;;;5056036;28;20790;-85
2024/03/15 04:35:17;;;;;;;4.80;4.40;;;;;;;;;;5055054;28;20381;-84
2024/03/15 04:37:43;;;;;;;5.15;4.22;;;;;;;;;;5052367;28;20864;-84
2024/03/15 04:40:10;;;;;;;5.07;4.68;;;;;;;;;;5052920;28;20373;-84
2024/03/15 04:42:36;;;;;;;4.78;4.38;;;;;;;;;;5052592;28;20386;-84
2024/03/15 04:45:06;;;;;;;5.00;4.50;;;;;;;;;;5053506;28;20397;-84
2024/03/15 04:47:32;;;;;;;4.60;4.20;;;;;;;;;;5052340;28;20464;-83
2024/03/15 04:49:58;;;;;;;4.75;4.38;;;;;;;;;;5053889;28;20437;-84
2024/03/15 04:52:24;;;;;;;4.88;4.47;;;;;;;;;;5054939;28;20463;-83
2024/03/15 04:54:50;;;;;;;5.07;4.68;;;;;;;;;;5055321;28;20408;-84
2024/03/15 04:57:18;;;;;;;5.97;4.93;;;;;;;;;;5054709;28;20389;-83
2024/03/15 04:59:45;;;;;;;6.03;4.57;;;;;;;;;;5053119;28;20440;-83
2024/03/15 05:02:12;;;;;;;5.32;4.93;;;;;;;;;;5054417;28;20449;-85
2024/03/15 05:04:40;;;;;;;4.90;4.50;;;;;;;;;;5053052;28;20389;-83
2024/03/15 05:07:06;;;;;;;4.80;4.38;;;;;;;;;;5054203;28;20862;-83
2024/03/15 05:09:32;;;;;;;4.70;4.13;;;;;;;;;;5054934;28;20404;-84
2024/03/15 05:11:58;;;;;;;4.30;3.90;;;;;;;;;;5054271;28;20919;-83
2024/03/15 05:14:24;;;;;;;5.15;4.65;;;;;;;;;;5054986;28;20381;-83
2024/03/15 05:16:56;;;;;;;7.77;7.00;;;;;;;;;;5054617;28;20404;-83
2024/03/15 05:19:23;;;;;;;7.72;7.03;;;;;;;;;;5052760;28;20385;-83
2024/03/15 05:21:49;;;;;;;6.43;5.93;;;;;;;;;;5053919;28;20427;-84
2024/03/15 05:24:16;;;;;;;5.97;5.45;;;;;;;;;;5054365;28;20411;-84
2024/03/15 05:26:42;;;;;;;6.30;5.70;;;;;;;;;;5054410;28;20433;-84
2024/03/15 05:29:08;;;;;;;36.10;27.33;;;;;;;;;;5054903;28;20390;-84
2024/03/15 05:31:34;;;;;;;10.57;9.60;;;;;;;;;;5058329;28;20405;-84
2024/03/15 05:34:00;;;;;;;5.80;5.30;;;;;;;;;;5056779;28;20374;-84
2024/03/15 05:36:27;;;;;;;5.68;4.70;;;;;;;;;;5056669;28;20382;-84
2024/03/15 05:38:53;;;;;;;6.57;6.07;;;;;;;;;;5058490;28;20464;-84
2024/03/15 05:41:19;;;;;;;6.03;5.43;;;;;;;;;;5057677;28;20392;-83
2024/03/15 05:43:45;;;;;;;7.05;4.95;;;;;;;;;;5055848;28;20397;-83
2024/03/15 05:46:11;;;;;;;5.55;5.03;;;;;;;;;;5055718;28;20392;-83
2024/03/15 05:48:37;;;;;;;5.40;4.97;;;;;;;;;;5056027;28;20890;-83
2024/03/15 05:51:04;;;;;;;5.30;4.80;;;;;;;;;;5055271;28;20424;-84
2024/03/15 05:53:30;;;;;;;4.82;4.38;;;;;;;;;;5056319;28;20385;-84
2024/03/15 05:55:56;;;;;;;5.60;5.10;;;;;;;;;;5056454;28;20385;-85
2024/03/15 05:58:22;;;;;;;6.30;5.27;;;;;;;;;;5055799;28;20409;-84
2024/03/15 06:00:49;;;;;;;5.57;4.57;;;;;;;;;;5056736;28;20377;-83
2024/03/15 06:03:16;;;;;;;5.22;4.72;;;;;;;;;;5056688;28;20386;-84
2024/03/15 06:05:42;;;;;;;6.05;5.45;;;;;;;;;;5051050;28;20381;-84
2024/03/15 06:08:10;;;;;;;5.50;5.05;;;;;;;;;;5056155;28;20460;-83
2024/03/15 06:10:36;;;;;;;5.32;4.65;;;;;;;;;;5055388;28;20377;-84
2024/03/15 06:13:02;;;;;;;5.03;4.60;;;;;;;;;;5055316;28;20488;-84
2024/03/15 06:15:28;;;;;;;5.20;4.80;;;;;;;;;;5057460;28;20457;-84
2024/03/15 06:17:55;;;;;;;6.05;5.55;;;;;;;;;;5056172;28;20830;-84
2024/03/15 06:20:21;;;;;;;5.60;5.10;;;;;;;;;;5058456;28;20863;-84
2024/03/15 06:22:47;;;;;;;6.88;6.25;;;;;;;;;;5058112;28;21098;-84
2024/03/15 06:25:13;;;;;;;5.80;5.30;;;;;;;;;;5058024;28;20386;-83
2024/03/15 06:27:39;;;;;;;5.57;4.97;;;;;;;;;;5057775;28;20450;-84
2024/03/15 06:30:12;;;;;;;5.00;4.60;;;;;;;;;;5058938;28;20421;-83
2024/03/15 06:32:39;;;;;;;6.07;5.57;;;;;;;;;;5059108;28;20508;-83
2024/03/15 06:35:27;;;;;;;6.87;5.93;;;;;;;;;;5057636;28;20421;-84
2024/03/15 06:37:54;;;;;;;6.27;5.67;;;;;;;;;;5045784;28;20821;-84
2024/03/15 06:40:42;;;;;;;6.85;6.25;;;;;;;;;;5057332;28;20374;-84
2024/03/15 06:48:22;;;;;;;7.00;6.40;;;;;;;;;;5058221;28;20461;-85
2024/03/15 06:52:31;;;;;;;6.93;6.28;;;;;;;;;;5056660;28;20866;-85
2024/03/15 06:53:47;;;;;;;7.68;6.88;;;;;;;;;;5050106;28;20378;-84
2024/03/15 06:56:14;;;;;;;6.75;6.15;;;;;;;;;;5056886;28;20378;-84
2024/03/15 06:58:40;;;;;;;6.93;6.30;;;;;;;;;;5057123;28;20388;-84
2024/03/15 07:01:06;;;;;;;6.73;6.23;;;;;;;;;;5057276;28;20377;-84
2024/03/15 07:03:32;;;;;;;6.75;6.15;;;;;;;;;;5056698;28;20875;-84
2024/03/15 07:05:58;;;;;;;6.20;5.60;;;;;;;;;;5056379;28;20443;-84
2024/03/15 07:08:24;;;;;;;6.50;5.90;;;;;;;;;;5056656;28;20385;-84
2024/03/15 07:10:50;;;;;;;6.60;6.10;;;;;;;;;;5056931;28;20385;-84
2024/03/15 07:13:16;;;;;;;7.73;7.03;;;;;;;;;;5056317;28;20899;-84
2024/03/15 07:15:43;;;;;;;8.00;7.10;;;;;;;;;;5056855;28;20385;-85
2024/03/15 07:18:09;;;;;;;7.35;6.72;;;;;;;;;;5053681;28;20389;-82
2024/03/15 07:20:36;;;;;;;7.73;7.03;;;;;;;;;;5052051;28;20409;-84
2024/03/15 07:23:05;;;;;;;7.77;7.13;;;;;;;;;;5055434;28;20377;-85
2024/03/15 07:25:31;;;;;;;7.57;6.88;;;;;;;;;;5055760;28;20804;-84
2024/03/15 07:27:57;;;;;;;8.40;7.70;;;;;;;;;;5056494;28;20393;-84
2024/03/15 07:30:24;;;;;;;8.10;7.43;;;;;;;;;;5055784;28;20863;-84
2024/03/15 07:32:51;;;;;;;9.10;8.25;;;;;;;;;;5055840;28;20405;-84
2024/03/15 07:35:17;;;;;;;8.43;7.72;;;;;;;;;;5057161;28;20924;-84
2024/03/15 07:37:46;;;;;;;8.45;7.75;;;;;;;;;;5056406;28;20382;-84
2024/03/15 07:40:13;;;;;;;8.75;7.95;;;;;;;;;;5056171;28;20374;-84
2024/03/15 07:42:40;;;;;;;8.77;7.97;;;;;;;;;;5056485;28;20868;-84
2024/03/15 07:45:07;;;;;;;9.77;8.88;;;;;;;;;;5056469;28;20389;-84
2024/03/15 07:47:33;;;;;;;9.90;9.00;;;;;;;;;;5056072;28;20378;-84
2024/03/15 07:50:00;;;;;;;10.63;9.13;;;;;;;;;;5055859;28;20405;-84
2024/03/15 07:52:28;;;;;;;10.32;9.25;;;;;;;;;;5053390;28;20426;-84
2024/03/15 07:54:54;;;;;;;9.32;8.52;;;;;;;;;;5053915;28;20384;-83
2024/03/15 07:57:20;;;;;;;10.25;9.20;;;;;;;;;;5056032;28;20378;-84
2024/03/15 07:59:46;;;;;;;11.15;10.15;;;;;;;;;;5055288;28;20863;-84
2024/03/15 08:02:12;;;;;;;11.80;10.70;;;;;;;;;;5053879;28;20381;-84
2024/03/15 08:04:39;;;;;;;12.15;10.50;;;;;;;;;;5055908;28;20815;-84
2024/03/15 08:07:05;;;;;;;12.30;11.00;;;;;;;;;;5055994;28;20409;-84
2024/03/15 08:09:31;;;;;;;12.00;9.95;;;;;;;;;;5054827;28;20401;-84
2024/03/15 08:11:57;;;;;;;11.15;10.00;;;;;;;;;;5055539;28;20459;-84
2024/03/15 08:14:23;;;;;;;16.45;10.98;;;;;;;;;;5055294;28;20428;-84
2024/03/15 08:16:49;;;;;;;9.75;8.80;;;;;;;;;;5055426;28;20411;-85
2024/03/15 08:19:15;;;;;;;11.10;8.77;;;;;;;;;;5055998;28;20409;-84
2024/03/15 08:21:41;;;;;;;9.82;8.93;;;;;;;;;;5055591;28;20390;-84
2024/03/15 08:24:10;;;;;;;10.32;7.97;;;;;;;;;;5056053;28;20418;-85
2024/03/15 08:26:36;;;;;;;6.70;6.10;;;;;;;;;;5056022;28;20535;-84
2024/03/15 08:29:03;;;;;;;7.05;6.22;;;;;;;;;;5056016;28;20409;-84
2024/03/15 08:31:29;;;;;;;6.70;6.00;;;;;;;;;;5055884;28;20469;-84
2024/03/15 08:33:56;;;;;;;6.75;6.15;;;;;;;;;;5055094;28;20389;-84
2024/03/15 08:36:24;;;;;;;6.65;6.00;;;;;;;;;;5054576;28;20446;-85
2024/03/15 08:38:51;;;;;;;7.15;6.10;;;;;;;;;;5055161;28;20955;-84
2024/03/15 08:41:17;;;;;;;6.15;5.55;;;;;;;;;;5056926;28;20415;-84
2024/03/15 08:43:43;;;;;;;5.15;4.70;;;;;;;;;;5056412;28;20381;-84
2024/03/15 08:46:10;;;;;;;4.20;3.80;;;;;;;;;;5056769;28;20412;-84
2024/03/15 08:48:36;;;;;;;4.10;3.70;;;;;;;;;;5055777;28;20397;-84
2024/03/15 08:51:03;;;;;;;4.70;3.70;;;;;;;;;;5055972;28;20405;-84
2024/03/15 08:53:29;;;;;;;4.43;3.58;;;;;;;;;;5056118;28;20393;-84
2024/03/15 08:55:58;;;;;;;6.10;3.97;;;;;;;;;;5055679;28;20404;-84
2024/03/15 08:58:26;;;;;;;4.60;3.60;;;;;;;;;;5054450;28;20455;-84
2024/03/15 09:00:52;;;;;;;4.55;3.50;;;;;;;;;;5055986;28;20381;-84
2024/03/15 09:03:18;;;;;;;4.05;3.03;;;;;;;;;;5055307;28;20392;-85
2024/03/15 09:05:46;;;;;;;3.93;3.17;;;;;;;;;;5057324;28;20913;-84
2024/03/15 09:08:12;;;;;;;3.13;2.70;;;;;;;;;;5059743;28;20381;-84
2024/03/15 09:10:38;;;;;;;3.60;2.83;;;;;;;;;;5059792;28;20901;-85
2024/03/15 09:13:04;;;;;;;4.15;2.75;;;;;;;;;;5059390;28;20867;-84
2024/03/15 09:15:31;;;;;;;3.47;2.65;;;;;;;;;;5058909;28;20381;-84
2024/03/15 09:17:58;;;;;;;3.10;2.80;;;;;;;;;;5058430;28;20373;-84
2024/03/15 09:22:57;;;;;;;4.32;2.80;;;;;;;;;;5059437;28;20942;-84
2024/03/15 09:25:25;;;;;;;3.70;2.70;;;;;;;;;;5058962;28;20389;-84
2024/03/15 09:27:54;;;;;;;2.97;2.70;;;;;;;;;;5058443;28;20386;-84
2024/03/15 09:30:26;;;;;;;3.47;2.97;;;;;;;;;;5058796;28;20902;-84
2024/03/15 09:32:52;;;;;;;3.42;2.90;;;;;;;;;;5059153;28;20412;-84
2024/03/15 09:35:19;;;;;;;3.38;3.08;;;;;;;;;;5059100;28;20384;-84
2024/03/15 09:37:51;;;;;;;5.68;2.60;;;;;;;;;;5059357;28;20439;-84
2024/03/15 09:40:23;;;;;;;4.35;2.53;;;;;;;;;;5059567;28;20379;-84
2024/03/15 09:42:51;;;;;;;3.28;2.60;;;;;;;;;;5059324;28;20427;-84
2024/03/15 09:45:18;;;;;;;4.72;2.90;;;;;;;;;;5058923;28;20851;-84
2024/03/15 09:47:45;;;;;;;2.73;2.53;;;;;;;;;;5057608;28;20408;-84
2024/03/15 09:50:21;;;;;;;4.18;3.20;;;;;;;;;;5058774;28;20833;-85
2024/03/15 09:52:49;;;;;;;2.90;2.47;;;;;;;;;;5058706;28;20558;-84
2024/03/15 09:55:19;;;;;;;2.90;2.60;;;;;;;;;;5058728;28;20377;-85
2024/03/15 09:57:46;;;;;;;2.53;2.33;;;;;;;;;;5058780;28;20384;-84
2024/03/15 10:00:16;;;;;;;3.10;2.70;;;;;;;;;;5057679;28;20940;-85
2024/03/15 10:02:47;;;;;;;3.30;2.40;;;;;;;;;;5059027;28;20404;-84
2024/03/15 10:05:13;;;;;;;3.95;2.47;;;;;;;;;;5059291;28;20423;-85
2024/03/15 10:07:39;;;;;;;3.47;2.90;;;;;;;;;;5056878;28;20779;-85
2024/03/15 10:10:10;;;;;;;4.00;2.67;;;;;;;;;;5058493;28;20409;-85
2024/03/15 10:12:36;;;;;;;3.28;2.50;;;;;;;;;;5058834;28;20523;-84
2024/03/15 10:15:02;;;;;;;3.17;2.55;;;;;;;;;;5057912;28;20428;-85
2024/03/15 10:17:29;;;;;;;3.10;2.20;;;;;;;;;;5057818;28;20369;-85
2024/03/15 10:19:55;;;;;;;4.93;2.20;;;;;;;;;;5058724;28;20378;-84
2024/03/15 10:22:21;;;;;;;3.00;1.95;;;;;;;;;;5058173;28;20378;-85
2024/03/15 10:24:47;;;;;;;3.08;2.00;;;;;;;;;;5057956;28;20384;-85
2024/03/15 10:27:13;;;;;;;2.17;1.67;;;;;;;;;;5058462;28;20377;-85
2024/03/15 10:29:39;;;;;;;2.65;1.80;;;;;;;;;;5058916;28;20412;-84
2024/03/15 10:32:10;;;;;;;3.85;2.00;;;;;;;;;;5058628;28;20421;-85
2024/03/15 10:34:38;;;;;;;3.33;1.60;;;;;;;;;;5058532;28;20408;-85
2024/03/15 10:37:11;;;;;;;3.35;1.58;;;;;;;;;;5057871;28;20374;-85
2024/03/15 10:39:37;;;;;;;2.60;1.65;;;;;;;;;;5058625;28;20847;-85
2024/03/15 10:42:04;;;;;;;2.55;1.50;;;;;;;;;;5055643;28;20413;-85
2024/03/15 10:44:31;;;;;;;1.85;1.20;;;;;;;;;;5058552;28;20392;-85
2024/03/15 10:46:58;;;;;;;2.55;1.50;;;;;;;;;;5058485;28;20382;-85
2024/03/15 10:49:25;;;;;;;2.50;1.30;;;;;;;;;;5057118;28;20398;-85
2024/03/15 10:51:52;;;;;;;2.30;1.40;;;;;;;;;;5057791;28;20976;-85
2024/03/15 10:54:19;;;;;;;3.07;1.60;;;;;;;;;;5057972;28;20412;-85
2024/03/15 10:56:47;;;;;;;2.70;1.42;;;;;;;;;;5058653;28;20378;-85
2024/03/15 10:59:12;;;;;;;2.58;1.25;;;;;;;;;;5057970;28;20378;-85
2024/03/15 11:01:40;;;;;;;2.50;1.60;;;;;;;;;;5058522;28;20996;-85
2024/03/15 11:04:11;;;;;;;3.55;1.40;;;;;;;;;;5058015;28;20416;-85
2024/03/15 11:06:39;;;;;;;2.63;1.40;;;;;;;;;;5057170;28;20486;-85
2024/03/15 11:09:20;;;;;;;2.88;1.42;;;;;;;;;;5057059;28;20699;-84
2024/03/15 11:11:55;;;;;;;2.60;1.50;;;;;;;;;;5055550;28;20515;-85
2024/03/15 11:14:24;;;;;;;4.13;1.70;;;;;;;;;;5058269;28;20847;-85
2024/03/15 11:16:56;;;;;;;1.95;1.60;;;;;;;;;;5057933;28;20382;-85
2024/03/15 11:19:23;;;;;;;2.80;1.60;;;;;;;;;;5056950;28;20385;-85
2024/03/15 11:21:49;;;;;;;3.33;1.75;;;;;;;;;;5049871;28;20441;-85
2024/03/15 11:24:15;;;;;;;2.50;1.50;;;;;;;;;;5056264;28;20470;-85
2024/03/15 11:26:41;;;;;;;2.03;1.27;;;;;;;;;;5057991;28;20389;-85
2024/03/15 11:29:19;;;;;;;2.65;1.73;;;;;;;;;;5056950;28;20382;-85
2024/03/15 11:31:45;;;;;;;2.05;1.20;;;;;;;;;;5050842;28;20409;-85
2024/03/15 11:34:11;;;;;;;3.05;1.33;;;;;;;;;;5056760;28;20389;-84
2024/03/15 11:36:37;;;;;;;3.28;1.35;;;;;;;;;;5056747;28;20381;-85
2024/03/15 11:39:08;;;;;;;3.10;1.20;;;;;;;;;;5057016;28;20441;-84
2024/03/15 11:41:38;;;;;;;2.03;1.10;;;;;;;;;;5052526;28;20374;-85
2024/03/15 11:44:04;;;;;;;1.90;1.10;;;;;;;;;;5057163;28;20732;-85
2024/03/15 11:46:32;;;;;;;2.28;1.38;;;;;;;;;;5057672;28;20766;-85
2024/03/15 11:49:02;;;;;;;1.52;1.25;;;;;;;;;;5055505;28;20476;-85
2024/03/15 11:51:28;;;;;;;1.85;1.30;;;;;;;;;;5056608;28;20409;-85
2024/03/15 11:53:54;;;;;;;2.27;1.50;;;;;;;;;;5056372;28;20377;-84
2024/03/15 11:56:21;;;;;;;2.40;1.20;;;;;;;;;;5056399;28;20418;-84
2024/03/15 11:58:48;;;;;;;2.55;1.30;;;;;;;;;;5056165;28;20402;-85
2024/03/15 12:01:15;;;;;;;2.90;1.60;;;;;;;;;;5053458;28;20460;-84
2024/03/15 12:03:41;;;;;;;1.75;1.17;;;;;;;;;;5056208;28;20382;-84
2024/03/15 12:06:08;;;;;;;3.20;1.42;;;;;;;;;;5056130;28;20855;-84
2024/03/15 12:08:34;;;;;;;3.38;1.30;;;;;;;;;;5056363;28;20415;-84
2024/03/15 12:11:00;;;;;;;2.05;1.13;;;;;;;;;;5056441;28;20425;-85
2024/03/15 12:13:28;;;;;;;1.65;1.20;;;;;;;;;;5056109;28;20389;-84
2024/03/15 12:15:55;;;;;;;2.70;1.17;;;;;;;;;;5055864;28;20421;-84
2024/03/15 12:18:24;;;;;;;2.13;0.98;;;;;;;;;;5055510;28;20377;-85
2024/03/15 12:20:51;;;;;;;2.45;1.13;;;;;;;;;;5053961;28;20404;-83
2024/03/15 12:23:18;;;;;;;1.45;0.98;;;;;;;;;;5053998;28;20424;-84
2024/03/15 12:25:45;;;;;;;4.43;1.20;;;;;;;;;;5051424;28;20411;-84
2024/03/15 12:28:15;;;;;;;2.30;1.05;;;;;;;;;;5055876;28;20469;-84
2024/03/15 12:30:42;;;;;;;1.50;1.10;;;;;;;;;;5054225;28;21062;-84
2024/03/15 12:33:09;;;;;;;2.30;1.20;;;;;;;;;;5049640;28;20418;-84
2024/03/15 12:35:36;;;;;;;2.22;1.27;;;;;;;;;;5055298;28;20374;-84
2024/03/15 12:38:02;;;;;;;1.77;1.30;;;;;;;;;;5048785;28;20377;-83
2024/03/15 12:40:29;;;;;;;2.53;1.23;;;;;;;;;;5049959;28;20470;-83
2024/03/15 12:42:55;;;;;;;2.63;1.30;;;;;;;;;;5037491;28;20421;-85
2024/03/15 12:45:22;;;;;;;2.05;1.00;;;;;;;;;;5036853;28;20391;-84
2024/03/15 12:47:48;;;;;;;1.73;1.00;;;;;;;;;;5055143;28;20763;-85
2024/03/15 12:50:17;;;;;;;3.10;1.07;;;;;;;;;;5054527;28;20478;-84
2024/03/15 12:52:43;;;;;;;1.55;1.20;;;;;;;;;;5050036;28;20500;-83
2024/03/15 12:55:18;;;;;;;2.37;1.20;;;;;;;;;;5049976;28;20464;-83
2024/03/15 12:57:46;;;;;;;1.23;0.90;;;;;;;;;;5053484;28;20431;-83
2024/03/15 13:00:14;;;;;;;1.52;1.23;;;;;;;;;;5044880;28;20464;-83
2024/03/15 13:02:40;;;;;;;1.95;1.20;;;;;;;;;;5039927;28;20418;-84
2024/03/15 13:05:11;;;;;;;1.60;1.20;;;;;;;;;;5041572;28;20388;-84
2024/03/15 13:07:37;;;;;;;1.50;1.20;;;;;;;;;;5054510;28;20388;-85
2024/03/15 13:10:03;;;;;;;1.25;1.10;;;;;;;;;;5052992;28;20385;-85
2024/03/15 13:12:29;;;;;;;1.98;1.20;;;;;;;;;;5051704;28;20405;-83
2024/03/15 13:14:55;;;;;;;2.13;1.30;;;;;;;;;;5050267;28;20379;-84
2024/03/15 13:17:22;;;;;;;2.42;1.35;;;;;;;;;;5049819;28;20423;-85
2024/03/15 13:19:48;;;;;;;2.33;1.27;;;;;;;;;;5049492;28;20403;-84
2024/03/15 13:22:14;;;;;;;1.42;1.20;;;;;;;;;;5037027;28;20394;-86
2024/03/15 13:24:41;;;;;;;2.45;1.42;;;;;;;;;;5038622;28;20397;-85
2024/03/15 13:27:11;;;;;;;2.55;1.30;;;;;;;;;;5037957;28;20459;-83
2024/03/15 13:29:37;;;;;;;2.38;1.30;;;;;;;;;;5045328;28;20385;-85
2024/03/15 13:32:04;;;;;;;2.20;1.23;;;;;;;;;;5049692;28;20766;-84
2024/03/15 13:34:30;;;;;;;1.77;1.00;;;;;;;;;;5056606;28;20413;-84
2024/03/15 13:36:56;;;;;;;1.00;0.77;;;;;;;;;;5053867;28;20441;-84
2024/03/15 13:39:27;;;;;;;1.87;1.10;;;;;;;;;;5055703;28;20382;-84
2024/03/15 13:41:57;;;;;;;1.27;1.10;;;;;;;;;;5055626;28;20401;-84
2024/03/15 13:44:25;;;;;;;2.17;1.27;;;;;;;;;;5056436;28;20473;-83
2024/03/15 13:46:51;;;;;;;1.67;1.00;;;;;;;;;;5056043;28;20408;-84
2024/03/15 13:49:17;;;;;;;1.58;1.05;;;;;;;;;;5054416;28;20460;-83
2024/03/15 13:51:43;;;;;;;2.20;1.13;;;;;;;;;;5054552;28;20456;-84
2024/03/15 13:54:10;;;;;;;1.75;1.02;;;;;;;;;;5058425;28;20377;-83
2024/03/15 13:56:36;;;;;;;1.67;0.90;;;;;;;;;;5058596;28;20394;-83
2024/03/15 13:59:07;;;;;;;2.92;1.13;;;;;;;;;;5058325;28;20390;-83
2024/03/15 14:01:33;;;;;;;3.00;1.02;;;;;;;;;;5058908;28;20386;-84
2024/03/15 14:03:59;;;;;;;3.13;1.30;;;;;;;;;;5058670;28;20471;-83
2024/03/15 14:06:31;;;;;;;2.30;1.00;;;;;;;;;;5058132;28;20390;-83
2024/03/15 14:09:00;;;;;;;3.53;1.00;;;;;;;;;;5058174;28;20460;-83
2024/03/15 14:11:27;;;;;;;1.83;0.80;;;;;;;;;;5057755;28;20413;-84
2024/03/15 14:13:53;;;;;;;1.85;0.90;;;;;;;;;;5058407;28;20735;-83
2024/03/15 14:16:20;;;;;;;2.50;0.88;;;;;;;;;;5057708;28;20410;-83
2024/03/15 14:18:46;;;;;;;1.25;0.70;;;;;;;;;;5058102;28;20385;-83
2024/03/15 14:21:13;;;;;;;1.83;0.85;;;;;;;;;;5058537;28;20377;-83
2024/03/15 14:23:39;;;;;;;1.65;0.90;;;;;;;;;;5054269;28;20373;-84
2024/03/15 14:26:05;;;;;;;1.73;0.80;;;;;;;;;;5058368;28;20389;-83
2024/03/15 14:28:31;;;;;;;1.70;0.80;;;;;;;;;;5058126;28;20384;-84
2024/03/15 14:31:00;;;;;;;1.17;0.70;;;;;;;;;;5055167;28;20808;-83
2024/03/15 14:33:27;;;;;;;2.15;0.90;;;;;;;;;;5041663;28;20423;-83
2024/03/15 14:35:57;;;;;;;2.37;1.00;;;;;;;;;;5052399;28;20431;-83
2024/03/15 14:38:25;;;;;;;1.60;1.00;;;;;;;;;;5058281;28;20381;-83
2024/03/15 14:40:54;;;;;;;1.85;0.75;;;;;;;;;;5057473;28;20381;-82
2024/03/15 14:43:20;;;;;;;1.70;0.70;;;;;;;;;;5052901;28;20387;-83
2024/03/15 14:45:46;;;;;;;1.30;0.70;;;;;;;;;;5056703;28;20476;-83
2024/03/15 14:48:12;;;;;;;2.00;0.60;;;;;;;;;;5050597;28;20396;-83
2024/03/15 14:50:39;;;;;;;1.90;0.68;;;;;;;;;;5049092;28;20402;-82